sensor_id;sensor_type;location;lat;lon;timestamp;temperature;humidity
3136;DHT22;1578;47.658;9.922;2023-09-07T00:01:48;13.90;86.80
3136;DHT22;1578;47.658;9.922;2023-09-07T00:04:14;13.90;85.00
3136;DHT22;1578;47.658;9.922;2023-09-07T00:06:40;13.90;87.60
3136;DHT22;1578;47.658;9.922;2023-09-07T00:09:09;13.80;86.60
3136;DHT22;1578;47.658;9.922;2023-09-07T00:11:36;13.80;88.50
3136;DHT22;1578;47.658;9.922;2023-09-07T00:14:02;13.80;89.20
3136;DHT22;1578;47.658;9.922;2023-09-07T00:16:28;13.80;87.80
3136;DHT22;1578;47.658;9.922;2023-09-07T00:18:53;13.80;86.30
3136;DHT22;1578;47.658;9.922;2023-09-07T00:21:19;13.70;89.80
3136;DHT22;1578;47.658;9.922;2023-09-07T00:23:45;13.70;90.40
3136;DHT22;1578;47.658;9.922;2023-09-07T00:26:10;13.80;90.50
3136;DHT22;1578;47.658;9.922;2023-09-07T00:28:38;13.80;90.00
3136;DHT22;1578;47.658;9.922;2023-09-07T00:31:04;13.60;88.60
3136;DHT22;1578;47.658;9.922;2023-09-07T00:33:29;13.70;89.10
3136;DHT22;1578;47.658;9.922;2023-09-07T00:35:55;13.50;90.00
3136;DHT22;1578;47.658;9.922;2023-09-07T00:38:21;13.70;90.40
3136;DHT22;1578;47.658;9.922;2023-09-07T00:40:46;13.80;90.10
3136;DHT22;1578;47.658;9.922;2023-09-07T00:43:12;13.80;90.00
3136;DHT22;1578;47.658;9.922;2023-09-07T00:45:39;13.80;89.20
3136;DHT22;1578;47.658;9.922;2023-09-07T00:48:05;13.70;86.70
3136;DHT22;1578;47.658;9.922;2023-09-07T00:50:31;13.70;88.50
3136;DHT22;1578;47.658;9.922;2023-09-07T00:52:58;13.60;88.00
3136;DHT22;1578;47.658;9.922;2023-09-07T00:55:27;13.50;90.10
3136;DHT22;1578;47.658;9.922;2023-09-07T00:57:55;13.70;90.40
3136;DHT22;1578;47.658;9.922;2023-09-07T01:00:21;13.70;90.40
3136;DHT22;1578;47.658;9.922;2023-09-07T01:02:46;13.70;90.60
3136;DHT22;1578;47.658;9.922;2023-09-07T01:05:12;13.70;90.00
3136;DHT22;1578;47.658;9.922;2023-09-07T01:07:46;13.70;90.00
3136;DHT22;1578;47.658;9.922;2023-09-07T01:10:12;13.70;89.70
3136;DHT22;1578;47.658;9.922;2023-09-07T01:12:40;13.70;90.10
3136;DHT22;1578;47.658;9.922;2023-09-07T01:15:06;13.60;90.00
3136;DHT22;1578;47.658;9.922;2023-09-07T01:17:33;13.40;90.30
3136;DHT22;1578;47.658;9.922;2023-09-07T01:20:03;13.30;91.70
3136;DHT22;1578;47.658;9.922;2023-09-07T01:22:31;13.40;92.50
3136;DHT22;1578;47.658;9.922;2023-09-07T01:25:00;13.50;92.80
3136;DHT22;1578;47.658;9.922;2023-09-07T01:27:27;13.60;92.60
3136;DHT22;1578;47.658;9.922;2023-09-07T01:29:53;13.70;92.10
3136;DHT22;1578;47.658;9.922;2023-09-07T01:32:18;13.60;91.60
3136;DHT22;1578;47.658;9.922;2023-09-07T01:34:45;13.60;91.70
3136;DHT22;1578;47.658;9.922;2023-09-07T01:37:10;13.70;91.30
3136;DHT22;1578;47.658;9.922;2023-09-07T01:39:36;13.70;91.00
3136;DHT22;1578;47.658;9.922;2023-09-07T01:42:02;13.70;90.80
3136;DHT22;1578;47.658;9.922;2023-09-07T01:44:28;13.60;90.40
3136;DHT22;1578;47.658;9.922;2023-09-07T01:46:55;13.60;90.50
3136;DHT22;1578;47.658;9.922;2023-09-07T01:49:20;13.60;90.40
3136;DHT22;1578;47.658;9.922;2023-09-07T01:51:46;13.50;90.30
3136;DHT22;1578;47.658;9.922;2023-09-07T01:54:12;13.50;90.10
3136;DHT22;1578;47.658;9.922;2023-09-07T01:56:37;13.40;89.00
3136;DHT22;1578;47.658;9.922;2023-09-07T01:59:04;13.30;88.90
3136;DHT22;1578;47.658;9.922;2023-09-07T02:01:31;13.20;90.20
3136;DHT22;1578;47.658;9.922;2023-09-07T02:03:57;13.20;90.60
3136;DHT22;1578;47.658;9.922;2023-09-07T02:06:23;13.40;90.40
3136;DHT22;1578;47.658;9.922;2023-09-07T02:08:48;13.30;88.90
3136;DHT22;1578;47.658;9.922;2023-09-07T02:11:15;13.30;90.30
3136;DHT22;1578;47.658;9.922;2023-09-07T02:13:46;13.30;90.30
3136;DHT22;1578;47.658;9.922;2023-09-07T02:16:12;13.30;89.30
3136;DHT22;1578;47.658;9.922;2023-09-07T02:18:37;13.30;87.70
3136;DHT22;1578;47.658;9.922;2023-09-07T02:21:05;13.30;88.90
3136;DHT22;1578;47.658;9.922;2023-09-07T02:23:34;13.30;88.40
3136;DHT22;1578;47.658;9.922;2023-09-07T02:26:00;13.10;87.50
3136;DHT22;1578;47.658;9.922;2023-09-07T02:28:26;12.90;89.80
3136;DHT22;1578;47.658;9.922;2023-09-07T02:30:52;12.90;91.40
3136;DHT22;1578;47.658;9.922;2023-09-07T02:33:18;12.90;90.70
3136;DHT22;1578;47.658;9.922;2023-09-07T02:35:44;13.00;90.40
3136;DHT22;1578;47.658;9.922;2023-09-07T02:38:09;12.90;90.10
3136;DHT22;1578;47.658;9.922;2023-09-07T02:40:42;12.90;90.10
3136;DHT22;1578;47.658;9.922;2023-09-07T02:43:08;12.90;90.40
3136;DHT22;1578;47.658;9.922;2023-09-07T02:45:34;12.90;90.90
3136;DHT22;1578;47.658;9.922;2023-09-07T02:48:00;13.10;90.40
3136;DHT22;1578;47.658;9.922;2023-09-07T02:50:25;13.10;90.20
3136;DHT22;1578;47.658;9.922;2023-09-07T02:52:51;13.10;90.20
3136;DHT22;1578;47.658;9.922;2023-09-07T02:55:16;13.10;91.20
3136;DHT22;1578;47.658;9.922;2023-09-07T02:57:42;13.10;91.30
3136;DHT22;1578;47.658;9.922;2023-09-07T03:00:08;13.10;91.00
3136;DHT22;1578;47.658;9.922;2023-09-07T03:02:36;13.10;90.80
3136;DHT22;1578;47.658;9.922;2023-09-07T03:05:02;13.00;90.80
3136;DHT22;1578;47.658;9.922;2023-09-07T03:07:32;12.90;90.30
3136;DHT22;1578;47.658;9.922;2023-09-07T03:09:58;12.80;90.00
3136;DHT22;1578;47.658;9.922;2023-09-07T03:12:23;12.90;90.10
3136;DHT22;1578;47.658;9.922;2023-09-07T03:14:49;12.90;90.10
3136;DHT22;1578;47.658;9.922;2023-09-07T03:17:16;12.90;90.10
3136;DHT22;1578;47.658;9.922;2023-09-07T03:19:43;12.90;89.90
3136;DHT22;1578;47.658;9.922;2023-09-07T03:22:09;12.90;88.90
3136;DHT22;1578;47.658;9.922;2023-09-07T03:24:35;12.90;90.10
3136;DHT22;1578;47.658;9.922;2023-09-07T03:27:01;13.00;90.10
3136;DHT22;1578;47.658;9.922;2023-09-07T03:29:26;13.00;90.10
3136;DHT22;1578;47.658;9.922;2023-09-07T03:31:52;13.00;90.10
3136;DHT22;1578;47.658;9.922;2023-09-07T03:34:18;13.00;90.10
3136;DHT22;1578;47.658;9.922;2023-09-07T03:36:45;12.80;90.00
3136;DHT22;1578;47.658;9.922;2023-09-07T03:39:10;12.80;90.00
3136;DHT22;1578;47.658;9.922;2023-09-07T03:41:36;12.80;90.00
3136;DHT22;1578;47.658;9.922;2023-09-07T03:44:02;12.90;90.10
3136;DHT22;1578;47.658;9.922;2023-09-07T03:46:27;12.90;89.10
3136;DHT22;1578;47.658;9.922;2023-09-07T03:48:53;12.90;88.60
3136;DHT22;1578;47.658;9.922;2023-09-07T03:51:19;12.80;88.70
3136;DHT22;1578;47.658;9.922;2023-09-07T03:53:44;12.60;90.00
3136;DHT22;1578;47.658;9.922;2023-09-07T03:56:11;12.50;90.80
3136;DHT22;1578;47.658;9.922;2023-09-07T03:58:37;12.50;90.80
3136;DHT22;1578;47.658;9.922;2023-09-07T04:01:02;12.50;91.00
3136;DHT22;1578;47.658;9.922;2023-09-07T04:03:28;12.40;91.80
3136;DHT22;1578;47.658;9.922;2023-09-07T04:05:53;12.40;91.60
3136;DHT22;1578;47.658;9.922;2023-09-07T04:08:19;12.50;91.70
3136;DHT22;1578;47.658;9.922;2023-09-07T04:10:45;12.50;91.50
3136;DHT22;1578;47.658;9.922;2023-09-07T04:13:10;12.60;91.00
3136;DHT22;1578;47.658;9.922;2023-09-07T04:15:45;12.70;91.10
3136;DHT22;1578;47.658;9.922;2023-09-07T04:18:12;12.80;91.50
3136;DHT22;1578;47.658;9.922;2023-09-07T04:20:42;12.70;90.80
3136;DHT22;1578;47.658;9.922;2023-09-07T04:23:08;12.70;90.10
3136;DHT22;1578;47.658;9.922;2023-09-07T04:25:34;12.50;89.90
3136;DHT22;1578;47.658;9.922;2023-09-07T04:27:59;12.40;90.30
3136;DHT22;1578;47.658;9.922;2023-09-07T04:30:26;12.50;90.50
3136;DHT22;1578;47.658;9.922;2023-09-07T04:32:52;12.60;90.50
3136;DHT22;1578;47.658;9.922;2023-09-07T04:35:17;12.50;89.90
3136;DHT22;1578;47.658;9.922;2023-09-07T04:37:44;12.50;90.80
3136;DHT22;1578;47.658;9.922;2023-09-07T04:40:10;12.60;90.90
3136;DHT22;1578;47.658;9.922;2023-09-07T04:42:37;12.60;90.40
3136;DHT22;1578;47.658;9.922;2023-09-07T04:45:05;12.60;90.10
3136;DHT22;1578;47.658;9.922;2023-09-07T04:47:31;12.50;90.20
3136;DHT22;1578;47.658;9.922;2023-09-07T04:49:57;12.40;90.00
3136;DHT22;1578;47.658;9.922;2023-09-07T04:52:23;12.30;89.70
3136;DHT22;1578;47.658;9.922;2023-09-07T04:54:48;12.30;91.70
3136;DHT22;1578;47.658;9.922;2023-09-07T04:57:16;12.30;91.70
3136;DHT22;1578;47.658;9.922;2023-09-07T04:59:45;12.30;91.60
3136;DHT22;1578;47.658;9.922;2023-09-07T05:02:11;12.20;91.70
3136;DHT22;1578;47.658;9.922;2023-09-07T05:04:38;12.20;91.70
3136;DHT22;1578;47.658;9.922;2023-09-07T05:07:04;12.20;92.00
3136;DHT22;1578;47.658;9.922;2023-09-07T05:09:30;12.30;91.80
3136;DHT22;1578;47.658;9.922;2023-09-07T05:11:56;12.30;91.90
3136;DHT22;1578;47.658;9.922;2023-09-07T05:14:23;12.40;92.30
3136;DHT22;1578;47.658;9.922;2023-09-07T05:16:50;12.70;91.90
3136;DHT22;1578;47.658;9.922;2023-09-07T05:19:15;12.80;90.70
3136;DHT22;1578;47.658;9.922;2023-09-07T05:21:41;12.80;90.80
3136;DHT22;1578;47.658;9.922;2023-09-07T05:24:07;12.90;90.40
3136;DHT22;1578;47.658;9.922;2023-09-07T05:26:32;12.90;90.60
3136;DHT22;1578;47.658;9.922;2023-09-07T05:28:58;13.00;90.80
3136;DHT22;1578;47.658;9.922;2023-09-07T05:31:23;13.10;90.30
3136;DHT22;1578;47.658;9.922;2023-09-07T05:33:49;13.10;90.10
3136;DHT22;1578;47.658;9.922;2023-09-07T05:36:17;13.10;90.20
3136;DHT22;1578;47.658;9.922;2023-09-07T05:38:42;13.20;91.00
3136;DHT22;1578;47.658;9.922;2023-09-07T05:41:08;13.30;90.60
3136;DHT22;1578;47.658;9.922;2023-09-07T05:43:34;13.20;91.20
3136;DHT22;1578;47.658;9.922;2023-09-07T05:45:59;13.40;92.80
3136;DHT22;1578;47.658;9.922;2023-09-07T05:48:25;13.70;94.30
3136;DHT22;1578;47.658;9.922;2023-09-07T05:50:51;14.00;92.10
3136;DHT22;1578;47.658;9.922;2023-09-07T05:53:18;14.30;90.30
3136;DHT22;1578;47.658;9.922;2023-09-07T05:55:45;14.40;87.30
3136;DHT22;1578;47.658;9.922;2023-09-07T05:58:11;14.60;87.50
3136;DHT22;1578;47.658;9.922;2023-09-07T06:00:36;14.70;86.60
3136;DHT22;1578;47.658;9.922;2023-09-07T06:03:05;14.90;86.70
3136;DHT22;1578;47.658;9.922;2023-09-07T06:05:31;15.00;86.10
3136;DHT22;1578;47.658;9.922;2023-09-07T06:07:56;15.20;86.00
3136;DHT22;1578;47.658;9.922;2023-09-07T06:10:22;15.30;84.40
3136;DHT22;1578;47.658;9.922;2023-09-07T06:12:48;15.40;83.90
3136;DHT22;1578;47.658;9.922;2023-09-07T06:15:13;15.50;84.50
3136;DHT22;1578;47.658;9.922;2023-09-07T06:17:39;15.80;83.80
3136;DHT22;1578;47.658;9.922;2023-09-07T06:20:05;16.10;84.50
3136;DHT22;1578;47.658;9.922;2023-09-07T06:22:31;16.40;82.40
3136;DHT22;1578;47.658;9.922;2023-09-07T06:24:57;16.60;75.90
3136;DHT22;1578;47.658;9.922;2023-09-07T06:27:22;16.80;76.10
3136;DHT22;1578;47.658;9.922;2023-09-07T06:29:48;17.00;76.00
3136;DHT22;1578;47.658;9.922;2023-09-07T06:32:14;17.20;76.50
3136;DHT22;1578;47.658;9.922;2023-09-07T06:34:40;17.50;72.20
3136;DHT22;1578;47.658;9.922;2023-09-07T06:37:06;17.70;73.30
3136;DHT22;1578;47.658;9.922;2023-09-07T06:39:31;18.00;72.50
3136;DHT22;1578;47.658;9.922;2023-09-07T06:41:57;18.30;67.40
3136;DHT22;1578;47.658;9.922;2023-09-07T06:44:22;18.50;67.30
3136;DHT22;1578;47.658;9.922;2023-09-07T06:46:48;18.60;61.80
3136;DHT22;1578;47.658;9.922;2023-09-07T06:49:15;18.70;64.40
3136;DHT22;1578;47.658;9.922;2023-09-07T06:51:40;18.80;67.20
3136;DHT22;1578;47.658;9.922;2023-09-07T06:54:06;19.00;64.10
3136;DHT22;1578;47.658;9.922;2023-09-07T06:56:32;19.20;62.30
3136;DHT22;1578;47.658;9.922;2023-09-07T06:59:00;19.40;61.80
3136;DHT22;1578;47.658;9.922;2023-09-07T07:01:26;19.60;58.90
3136;DHT22;1578;47.658;9.922;2023-09-07T07:03:51;19.70;60.00
3136;DHT22;1578;47.658;9.922;2023-09-07T07:06:18;19.90;60.10
3136;DHT22;1578;47.658;9.922;2023-09-07T07:08:44;20.10;56.80
3136;DHT22;1578;47.658;9.922;2023-09-07T07:11:10;20.30;58.30
3136;DHT22;1578;47.658;9.922;2023-09-07T07:13:36;20.50;58.10
3136;DHT22;1578;47.658;9.922;2023-09-07T07:16:02;20.70;55.20
3136;DHT22;1578;47.658;9.922;2023-09-07T07:18:29;20.90;57.90
3136;DHT22;1578;47.658;9.922;2023-09-07T07:20:55;21.10;55.60
3136;DHT22;1578;47.658;9.922;2023-09-07T07:23:20;21.40;56.10
3136;DHT22;1578;47.658;9.922;2023-09-07T07:25:46;21.70;56.30
3136;DHT22;1578;47.658;9.922;2023-09-07T07:28:12;21.80;50.20
3136;DHT22;1578;47.658;9.922;2023-09-07T07:30:39;22.00;47.90
3136;DHT22;1578;47.658;9.922;2023-09-07T07:33:08;22.20;49.00
3136;DHT22;1578;47.658;9.922;2023-09-07T07:35:35;22.50;45.70
3136;DHT22;1578;47.658;9.922;2023-09-07T07:38:01;22.80;43.70
3136;DHT22;1578;47.658;9.922;2023-09-07T07:40:29;23.10;42.90
3136;DHT22;1578;47.658;9.922;2023-09-07T07:42:55;23.40;41.70
3136;DHT22;1578;47.658;9.922;2023-09-07T07:45:20;23.60;41.00
3136;DHT22;1578;47.658;9.922;2023-09-07T07:47:48;23.70;38.60
3136;DHT22;1578;47.658;9.922;2023-09-07T07:50:14;23.80;34.40
3136;DHT22;1578;47.658;9.922;2023-09-07T07:52:40;23.80;38.20
3136;DHT22;1578;47.658;9.922;2023-09-07T07:55:06;23.60;36.00
3136;DHT22;1578;47.658;9.922;2023-09-07T07:57:32;23.50;40.60
3136;DHT22;1578;47.658;9.922;2023-09-07T07:59:58;23.60;42.40
3136;DHT22;1578;47.658;9.922;2023-09-07T08:02:23;23.80;40.20
3136;DHT22;1578;47.658;9.922;2023-09-07T08:04:49;24.00;35.80
3136;DHT22;1578;47.658;9.922;2023-09-07T08:07:15;24.10;34.90
3136;DHT22;1578;47.658;9.922;2023-09-07T08:09:40;24.10;34.90
3136;DHT22;1578;47.658;9.922;2023-09-07T08:12:06;24.00;36.50
3136;DHT22;1578;47.658;9.922;2023-09-07T08:14:32;23.90;37.70
3136;DHT22;1578;47.658;9.922;2023-09-07T08:16:58;23.90;38.40
3136;DHT22;1578;47.658;9.922;2023-09-07T08:19:24;23.90;35.90
3136;DHT22;1578;47.658;9.922;2023-09-07T08:21:50;24.10;41.70
3136;DHT22;1578;47.658;9.922;2023-09-07T08:24:16;24.30;39.00
3136;DHT22;1578;47.658;9.922;2023-09-07T08:26:43;24.60;34.70
3136;DHT22;1578;47.658;9.922;2023-09-07T08:29:09;24.30;37.20
3136;DHT22;1578;47.658;9.922;2023-09-07T08:31:40;24.40;38.70
3136;DHT22;1578;47.658;9.922;2023-09-07T08:34:07;24.60;35.10
3136;DHT22;1578;47.658;9.922;2023-09-07T08:36:35;24.80;35.50
3136;DHT22;1578;47.658;9.922;2023-09-07T08:39:01;25.00;31.60
3136;DHT22;1578;47.658;9.922;2023-09-07T08:41:32;24.80;29.10
3136;DHT22;1578;47.658;9.922;2023-09-07T08:43:59;24.90;32.60
3136;DHT22;1578;47.658;9.922;2023-09-07T08:46:26;25.00;33.70
3136;DHT22;1578;47.658;9.922;2023-09-07T08:48:52;25.20;29.70
3136;DHT22;1578;47.658;9.922;2023-09-07T08:51:20;25.20;30.40
3136;DHT22;1578;47.658;9.922;2023-09-07T08:53:46;25.10;32.80
3136;DHT22;1578;47.658;9.922;2023-09-07T08:56:13;25.40;29.90
3136;DHT22;1578;47.658;9.922;2023-09-07T08:58:39;25.60;29.60
3136;DHT22;1578;47.658;9.922;2023-09-07T09:01:06;25.70;31.00
3136;DHT22;1578;47.658;9.922;2023-09-07T09:03:34;25.40;29.40
3136;DHT22;1578;47.658;9.922;2023-09-07T09:06:00;25.20;30.70
3136;DHT22;1578;47.658;9.922;2023-09-07T09:08:27;25.10;35.20
3136;DHT22;1578;47.658;9.922;2023-09-07T09:11:01;24.80;30.40
3136;DHT22;1578;47.658;9.922;2023-09-07T09:13:32;24.80;35.50
3136;DHT22;1578;47.658;9.922;2023-09-07T09:16:01;25.00;31.80
3136;DHT22;1578;47.658;9.922;2023-09-07T09:18:27;25.30;31.40
3136;DHT22;1578;47.658;9.922;2023-09-07T09:20:57;25.40;30.20
3136;DHT22;1578;47.658;9.922;2023-09-07T09:23:33;25.40;30.70
3136;DHT22;1578;47.658;9.922;2023-09-07T09:26:00;25.60;28.60
3136;DHT22;1578;47.658;9.922;2023-09-07T09:28:26;25.70;29.10
3136;DHT22;1578;47.658;9.922;2023-09-07T09:31:01;25.70;28.30
3136;DHT22;1578;47.658;9.922;2023-09-07T09:33:30;25.70;27.50
3136;DHT22;1578;47.658;9.922;2023-09-07T09:35:57;25.60;26.80
3136;DHT22;1578;47.658;9.922;2023-09-07T09:38:23;25.70;26.20
3136;DHT22;1578;47.658;9.922;2023-09-07T09:40:51;25.80;26.70
3136;DHT22;1578;47.658;9.922;2023-09-07T09:43:19;25.80;27.00
3136;DHT22;1578;47.658;9.922;2023-09-07T09:45:45;25.90;28.80
3136;DHT22;1578;47.658;9.922;2023-09-07T09:48:12;25.80;26.30
3136;DHT22;1578;47.658;9.922;2023-09-07T09:50:39;25.70;27.40
3136;DHT22;1578;47.658;9.922;2023-09-07T09:53:06;25.70;26.90
3136;DHT22;1578;47.658;9.922;2023-09-07T09:55:33;25.80;26.10
3136;DHT22;1578;47.658;9.922;2023-09-07T09:57:59;25.70;28.80
3136;DHT22;1578;47.658;9.922;2023-09-07T10:00:25;25.40;26.70
3136;DHT22;1578;47.658;9.922;2023-09-07T10:03:27;25.40;27.80
3136;DHT22;1578;47.658;9.922;2023-09-07T10:05:53;25.20;28.70
3136;DHT22;1578;47.658;9.922;2023-09-07T10:08:20;25.30;26.70
3136;DHT22;1578;47.658;9.922;2023-09-07T10:10:49;25.30;26.70
3136;DHT22;1578;47.658;9.922;2023-09-07T10:13:30;25.50;26.30
3136;DHT22;1578;47.658;9.922;2023-09-07T10:16:06;25.30;28.00
3136;DHT22;1578;47.658;9.922;2023-09-07T10:18:37;25.40;28.50
3136;DHT22;1578;47.658;9.922;2023-09-07T10:21:04;25.50;28.70
3136;DHT22;1578;47.658;9.922;2023-09-07T10:23:44;25.60;27.60
3136;DHT22;1578;47.658;9.922;2023-09-07T10:26:17;25.40;28.50
3136;DHT22;1578;47.658;9.922;2023-09-07T10:28:43;25.30;26.70
3136;DHT22;1578;47.658;9.922;2023-09-07T10:31:18;25.40;27.60
3136;DHT22;1578;47.658;9.922;2023-09-07T10:33:44;25.60;27.40
3136;DHT22;1578;47.658;9.922;2023-09-07T10:38:46;25.40;31.40
3136;DHT22;1578;47.658;9.922;2023-09-07T10:41:12;25.60;29.70
3136;DHT22;1578;47.658;9.922;2023-09-07T10:43:49;25.80;29.10
3136;DHT22;1578;47.658;9.922;2023-09-07T10:46:21;26.00;23.40
3136;DHT22;1578;47.658;9.922;2023-09-07T10:48:52;26.20;24.10
3136;DHT22;1578;47.658;9.922;2023-09-07T10:51:21;26.30;22.20
3136;DHT22;1578;47.658;9.922;2023-09-07T10:53:47;26.50;22.00
3136;DHT22;1578;47.658;9.922;2023-09-07T10:56:12;26.50;24.30
3136;DHT22;1578;47.658;9.922;2023-09-07T10:58:39;26.60;24.10
3136;DHT22;1578;47.658;9.922;2023-09-07T11:01:07;26.70;20.40
3136;DHT22;1578;47.658;9.922;2023-09-07T11:03:33;26.40;21.20
3136;DHT22;1578;47.658;9.922;2023-09-07T11:06:16;26.30;22.80
3136;DHT22;1578;47.658;9.922;2023-09-07T11:08:48;26.30;26.20
3136;DHT22;1578;47.658;9.922;2023-09-07T11:11:14;26.50;23.30
3136;DHT22;1578;47.658;9.922;2023-09-07T11:13:40;26.80;24.20
3136;DHT22;1578;47.658;9.922;2023-09-07T11:16:09;26.80;18.60
3136;DHT22;1578;47.658;9.922;2023-09-07T11:18:36;26.70;21.50
3136;DHT22;1578;47.658;9.922;2023-09-07T11:21:02;26.90;21.20
3136;DHT22;1578;47.658;9.922;2023-09-07T11:23:31;26.90;20.00
3136;DHT22;1578;47.658;9.922;2023-09-07T11:26:06;27.10;19.80
3136;DHT22;1578;47.658;9.922;2023-09-07T11:28:32;27.20;16.20
3136;DHT22;1578;47.658;9.922;2023-09-07T11:30:59;26.80;16.80
3136;DHT22;1578;47.658;9.922;2023-09-07T11:33:25;26.90;18.30
3136;DHT22;1578;47.658;9.922;2023-09-07T11:35:52;26.90;18.20
3136;DHT22;1578;47.658;9.922;2023-09-07T11:38:20;27.00;17.60
3136;DHT22;1578;47.658;9.922;2023-09-07T11:40:46;26.90;17.50
3136;DHT22;1578;47.658;9.922;2023-09-07T11:43:16;27.10;16.60
3136;DHT22;1578;47.658;9.922;2023-09-07T11:45:43;27.40;16.90
3136;DHT22;1578;47.658;9.922;2023-09-07T11:48:09;27.70;15.80
3136;DHT22;1578;47.658;9.922;2023-09-07T11:50:36;28.00;11.80
3136;DHT22;1578;47.658;9.922;2023-09-07T11:53:01;28.10;8.60
3136;DHT22;1578;47.658;9.922;2023-09-07T11:55:27;27.90;12.50
3136;DHT22;1578;47.658;9.922;2023-09-07T11:57:53;28.10;11.60
3136;DHT22;1578;47.658;9.922;2023-09-07T12:00:19;28.20;11.60
3136;DHT22;1578;47.658;9.922;2023-09-07T12:02:45;27.90;12.00
3136;DHT22;1578;47.658;9.922;2023-09-07T12:05:11;27.70;13.50
3136;DHT22;1578;47.658;9.922;2023-09-07T12:07:41;27.80;11.40
3136;DHT22;1578;47.658;9.922;2023-09-07T12:10:07;27.90;12.80
3136;DHT22;1578;47.658;9.922;2023-09-07T12:12:43;28.10;12.40
3136;DHT22;1578;47.658;9.922;2023-09-07T12:15:10;28.40;10.10
3136;DHT22;1578;47.658;9.922;2023-09-07T12:17:38;28.50;11.70
3136;DHT22;1578;47.658;9.922;2023-09-07T12:20:05;28.50;10.00
3136;DHT22;1578;47.658;9.922;2023-09-07T12:22:34;28.40;10.70
3136;DHT22;1578;47.658;9.922;2023-09-07T12:25:01;28.10;13.80
3136;DHT22;1578;47.658;9.922;2023-09-07T12:27:27;28.20;10.70
3136;DHT22;1578;47.658;9.922;2023-09-07T12:29:53;28.30;9.60
3136;DHT22;1578;47.658;9.922;2023-09-07T12:32:19;28.30;12.70
3136;DHT22;1578;47.658;9.922;2023-09-07T12:34:44;28.50;11.40
3136;DHT22;1578;47.658;9.922;2023-09-07T12:37:10;28.60;10.40
3136;DHT22;1578;47.658;9.922;2023-09-07T12:39:36;28.40;11.70
3136;DHT22;1578;47.658;9.922;2023-09-07T12:42:01;28.50;9.60
3136;DHT22;1578;47.658;9.922;2023-09-07T12:44:27;28.50;10.10
3136;DHT22;1578;47.658;9.922;2023-09-07T12:46:52;28.70;9.20
3136;DHT22;1578;47.658;9.922;2023-09-07T12:49:18;28.70;13.90
3136;DHT22;1578;47.658;9.922;2023-09-07T12:51:47;28.80;12.20
3136;DHT22;1578;47.658;9.922;2023-09-07T12:54:13;28.80;10.90
3136;DHT22;1578;47.658;9.922;2023-09-07T12:56:38;28.80;11.80
3136;DHT22;1578;47.658;9.922;2023-09-07T12:59:04;28.40;13.30
3136;DHT22;1578;47.658;9.922;2023-09-07T13:01:30;28.20;12.90
3136;DHT22;1578;47.658;9.922;2023-09-07T13:03:56;28.10;14.00
3136;DHT22;1578;47.658;9.922;2023-09-07T13:06:22;28.30;17.50
3136;DHT22;1578;47.658;9.922;2023-09-07T13:08:47;28.60;15.30
3136;DHT22;1578;47.658;9.922;2023-09-07T13:11:13;28.80;12.70
3136;DHT22;1578;47.658;9.922;2023-09-07T13:13:39;29.10;10.30
3136;DHT22;1578;47.658;9.922;2023-09-07T13:16:05;28.90;12.00
3136;DHT22;1578;47.658;9.922;2023-09-07T13:18:30;28.90;14.50
3136;DHT22;1578;47.658;9.922;2023-09-07T13:20:57;28.70;10.30
3136;DHT22;1578;47.658;9.922;2023-09-07T13:23:29;28.50;13.40
3136;DHT22;1578;47.658;9.922;2023-09-07T13:25:58;28.50;10.30
3136;DHT22;1578;47.658;9.922;2023-09-07T13:28:25;28.50;13.00
3136;DHT22;1578;47.658;9.922;2023-09-07T13:30:51;28.50;12.30
3136;DHT22;1578;47.658;9.922;2023-09-07T13:33:16;28.40;13.10
3136;DHT22;1578;47.658;9.922;2023-09-07T13:35:42;28.60;12.90
3136;DHT22;1578;47.658;9.922;2023-09-07T13:38:09;28.50;11.70
3136;DHT22;1578;47.658;9.922;2023-09-07T13:40:34;28.40;13.20
3136;DHT22;1578;47.658;9.922;2023-09-07T13:43:00;28.40;13.70
3136;DHT22;1578;47.658;9.922;2023-09-07T13:45:26;28.50;16.50
3136;DHT22;1578;47.658;9.922;2023-09-07T13:47:52;28.70;15.70
3136;DHT22;1578;47.658;9.922;2023-09-07T13:50:18;28.30;16.20
3136;DHT22;1578;47.658;9.922;2023-09-07T13:52:43;28.20;18.00
3136;DHT22;1578;47.658;9.922;2023-09-07T13:55:09;28.20;17.40
3136;DHT22;1578;47.658;9.922;2023-09-07T13:57:35;28.10;16.90
3136;DHT22;1578;47.658;9.922;2023-09-07T14:00:01;28.10;18.30
3136;DHT22;1578;47.658;9.922;2023-09-07T14:02:27;28.30;18.20
3136;DHT22;1578;47.658;9.922;2023-09-07T14:04:53;28.50;18.00
3136;DHT22;1578;47.658;9.922;2023-09-07T14:07:19;28.80;17.80
3136;DHT22;1578;47.658;9.922;2023-09-07T14:09:45;28.70;17.00
3136;DHT22;1578;47.658;9.922;2023-09-07T14:12:10;28.50;15.60
3136;DHT22;1578;47.658;9.922;2023-09-07T14:14:38;28.60;16.40
3136;DHT22;1578;47.658;9.922;2023-09-07T14:17:03;28.50;14.40
3136;DHT22;1578;47.658;9.922;2023-09-07T14:19:29;28.10;18.20
3136;DHT22;1578;47.658;9.922;2023-09-07T14:21:57;28.00;19.30
3136;DHT22;1578;47.658;9.922;2023-09-07T14:24:24;28.30;17.10
3136;DHT22;1578;47.658;9.922;2023-09-07T14:26:50;28.40;17.30
3136;DHT22;1578;47.658;9.922;2023-09-07T14:29:16;28.40;19.50
3136;DHT22;1578;47.658;9.922;2023-09-07T14:31:41;28.50;16.50
3136;DHT22;1578;47.658;9.922;2023-09-07T14:34:09;28.50;16.00
3136;DHT22;1578;47.658;9.922;2023-09-07T14:36:35;28.20;17.90
3136;DHT22;1578;47.658;9.922;2023-09-07T14:39:00;28.20;20.00
3136;DHT22;1578;47.658;9.922;2023-09-07T14:41:27;28.40;18.90
3136;DHT22;1578;47.658;9.922;2023-09-07T14:43:55;28.20;17.20
3136;DHT22;1578;47.658;9.922;2023-09-07T14:46:21;28.20;18.80
3136;DHT22;1578;47.658;9.922;2023-09-07T14:48:48;28.10;16.70
3136;DHT22;1578;47.658;9.922;2023-09-07T14:51:15;28.00;17.90
3136;DHT22;1578;47.658;9.922;2023-09-07T14:53:40;28.30;17.70
3136;DHT22;1578;47.658;9.922;2023-09-07T14:56:06;28.30;17.70
3136;DHT22;1578;47.658;9.922;2023-09-07T14:58:32;28.20;17.70
3136;DHT22;1578;47.658;9.922;2023-09-07T15:00:58;28.20;15.80
3136;DHT22;1578;47.658;9.922;2023-09-07T15:03:23;28.20;19.40
3136;DHT22;1578;47.658;9.922;2023-09-07T15:05:49;28.20;17.50
3136;DHT22;1578;47.658;9.922;2023-09-07T15:08:15;28.20;19.00
3136;DHT22;1578;47.658;9.922;2023-09-07T15:10:41;28.20;20.00
3136;DHT22;1578;47.658;9.922;2023-09-07T15:13:07;28.40;20.10
3136;DHT22;1578;47.658;9.922;2023-09-07T15:15:34;28.40;17.20
3136;DHT22;1578;47.658;9.922;2023-09-07T15:18:03;28.00;20.20
3136;DHT22;1578;47.658;9.922;2023-09-07T15:20:29;28.00;19.90
3136;DHT22;1578;47.658;9.922;2023-09-07T15:22:54;27.90;21.70
3136;DHT22;1578;47.658;9.922;2023-09-07T15:25:20;28.00;20.70
3136;DHT22;1578;47.658;9.922;2023-09-07T15:27:46;28.10;20.40
3136;DHT22;1578;47.658;9.922;2023-09-07T15:30:15;28.30;20.10
3136;DHT22;1578;47.658;9.922;2023-09-07T15:32:42;28.40;20.40
3136;DHT22;1578;47.658;9.922;2023-09-07T15:35:08;28.40;20.10
3136;DHT22;1578;47.658;9.922;2023-09-07T15:37:34;28.30;20.50
3136;DHT22;1578;47.658;9.922;2023-09-07T15:40:00;28.30;19.70
3136;DHT22;1578;47.658;9.922;2023-09-07T15:42:25;28.40;20.20
3136;DHT22;1578;47.658;9.922;2023-09-07T15:44:52;28.50;19.50
3136;DHT22;1578;47.658;9.922;2023-09-07T15:47:18;28.70;18.80
3136;DHT22;1578;47.658;9.922;2023-09-07T15:49:43;28.80;18.50
3136;DHT22;1578;47.658;9.922;2023-09-07T15:52:18;29.00;20.30
3136;DHT22;1578;47.658;9.922;2023-09-07T15:54:44;29.20;16.40
3136;DHT22;1578;47.658;9.922;2023-09-07T15:57:09;29.10;16.60
3136;DHT22;1578;47.658;9.922;2023-09-07T15:59:35;28.80;15.70
3136;DHT22;1578;47.658;9.922;2023-09-07T16:02:01;29.00;16.50